Terminal Aerodrome Forecast
Issued by NWS Albuquerque, NM

Home | Current Version | Previous Version | Text Only | Print | Product List | Glossary On
Versions: 1 2 3 4 5 6 7 8 9 10 11 12 13
000
FTUS45 KABQ 181722
TAFABQ
TAF
KABQ 181722Z 1818/1918 VRB05KT P6SM FEW120 SCT250
     FM182030 26006KT P6SM SCT120
     FM190200 15008KT P6SM SCT120
     FM190900 VRB05KT P6SM FEW120=

USA.gov is the U.S. government's official web portal to all federal, state and local government web resources and services.